sensor_id;sensor_type;location;lat;lon;timestamp;pressure;altitude;pressure_sealevel;temperature;humidity
48015;BME280;33780;51.034;7.120;2023-03-12T00:01:24;100434.63;;;2.85;65.84
48015;BME280;33780;51.034;7.120;2023-03-12T00:03:51;100428.50;;;2.84;65.69
48015;BME280;33780;51.034;7.120;2023-03-12T00:06:19;100425.97;;;2.83;66.47
48015;BME280;33780;51.034;7.120;2023-03-12T00:08:46;100429.44;;;2.83;65.97
48015;BME280;33780;51.034;7.120;2023-03-12T00:11:13;100434.81;;;2.82;66.50
48015;BME280;33780;51.034;7.120;2023-03-12T00:13:41;100419.06;;;2.80;66.11
48015;BME280;33780;51.034;7.120;2023-03-12T00:16:10;100426.06;;;2.81;66.33
48015;BME280;33780;51.034;7.120;2023-03-12T00:18:35;100423.41;;;2.81;66.26
48015;BME280;33780;51.034;7.120;2023-03-12T00:21:01;100423.41;;;2.81;66.90
48015;BME280;33780;51.034;7.120;2023-03-12T00:23:27;100422.47;;;2.82;66.94
48015;BME280;33780;51.034;7.120;2023-03-12T00:25:52;100420.75;;;2.81;67.05
48015;BME280;33780;51.034;7.120;2023-03-12T00:28:18;100421.63;;;2.82;67.03
48015;BME280;33780;51.034;7.120;2023-03-12T00:30:43;100416.31;;;2.82;66.68
48015;BME280;33780;51.034;7.120;2023-03-12T00:33:09;100404.91;;;2.81;67.04
48015;BME280;33780;51.034;7.120;2023-03-12T00:35:37;100411.91;;;2.82;66.64
48015;BME280;33780;51.034;7.120;2023-03-12T00:38:02;100401.31;;;2.82;67.22
48015;BME280;33780;51.034;7.120;2023-03-12T00:40:27;100408.41;;;2.82;66.99
48015;BME280;33780;51.034;7.120;2023-03-12T00:42:53;100407.56;;;2.81;66.94
48015;BME280;33780;51.034;7.120;2023-03-12T00:45:18;100404.91;;;2.81;67.72
48015;BME280;33780;51.034;7.120;2023-03-12T00:47:43;100401.41;;;2.81;67.09
48015;BME280;33780;51.034;7.120;2023-03-12T00:50:09;100396.97;;;2.81;67.33
48015;BME280;33780;51.034;7.120;2023-03-12T00:52:34;100396.97;;;2.81;67.38
48015;BME280;33780;51.034;7.120;2023-03-12T00:55:00;100393.41;;;2.82;67.17
48015;BME280;33780;51.034;7.120;2023-03-12T00:57:25;100384.53;;;2.83;67.93
48015;BME280;33780;51.034;7.120;2023-03-12T00:59:50;100391.59;;;2.83;67.97
48015;BME280;33780;51.034;7.120;2023-03-12T01:02:15;100393.41;;;2.82;67.52
48015;BME280;33780;51.034;7.120;2023-03-12T01:04:41;100399.53;;;2.83;67.43
48015;BME280;33780;51.034;7.120;2023-03-12T01:07:06;100389.72;;;2.85;67.57
48015;BME280;33780;51.034;7.120;2023-03-12T01:09:31;100387.94;;;2.85;68.08
48015;BME280;33780;51.034;7.120;2023-03-12T01:11:57;100386.22;;;2.84;67.72
48015;BME280;33780;51.034;7.120;2023-03-12T01:14:22;100389.63;;;2.86;67.90
48015;BME280;33780;51.034;7.120;2023-03-12T01:16:48;100390.47;;;2.87;67.60
48015;BME280;33780;51.034;7.120;2023-03-12T01:19:14;100388.72;;;2.87;67.58
48015;BME280;33780;51.034;7.120;2023-03-12T01:21:39;100393.13;;;2.87;68.19
48015;BME280;33780;51.034;7.120;2023-03-12T01:24:04;100383.44;;;2.87;68.02
48015;BME280;33780;51.034;7.120;2023-03-12T01:26:30;100379.06;;;2.86;67.93
48015;BME280;33780;51.034;7.120;2023-03-12T01:28:55;100385.13;;;2.88;68.28
48015;BME280;33780;51.034;7.120;2023-03-12T01:31:20;100376.34;;;2.88;68.00
48015;BME280;33780;51.034;7.120;2023-03-12T01:33:52;100374.63;;;2.87;68.13
48015;BME280;33780;51.034;7.120;2023-03-12T01:38:45;100363.13;;;2.88;68.11
48015;BME280;33780;51.034;7.120;2023-03-12T01:41:11;100363.13;;;2.88;68.69
48015;BME280;33780;51.034;7.120;2023-03-12T01:43:38;100363.13;;;2.88;68.82
48015;BME280;33780;51.034;7.120;2023-03-12T01:46:12;100361.34;;;2.88;68.28
48015;BME280;33780;51.034;7.120;2023-03-12T01:48:44;100363.13;;;2.88;68.65
48015;BME280;33780;51.034;7.120;2023-03-12T01:51:11;100363.13;;;2.88;68.64
48015;BME280;33780;51.034;7.120;2023-03-12T01:53:38;100358.69;;;2.88;68.85
48015;BME280;33780;51.034;7.120;2023-03-12T01:56:07;100348.13;;;2.88;68.89
48015;BME280;33780;51.034;7.120;2023-03-12T01:58:35;100347.28;;;2.88;68.58
48015;BME280;33780;51.034;7.120;2023-03-12T02:01:02;100344.53;;;2.89;69.02
48015;BME280;33780;51.034;7.120;2023-03-12T02:03:28;100341.91;;;2.89;68.51
48015;BME280;33780;51.034;7.120;2023-03-12T02:06:01;100336.72;;;2.88;68.88
48015;BME280;33780;51.034;7.120;2023-03-12T02:08:29;100327.94;;;2.87;68.79
48015;BME280;33780;51.034;7.120;2023-03-12T02:10:54;100328.00;;;2.86;68.91
48015;BME280;33780;51.034;7.120;2023-03-12T02:13:19;100322.72;;;2.86;68.59
48015;BME280;33780;51.034;7.120;2023-03-12T02:15:45;100314.88;;;2.84;68.34
48015;BME280;33780;51.034;7.120;2023-03-12T02:18:14;100318.56;;;2.82;68.85
48015;BME280;33780;51.034;7.120;2023-03-12T02:20:48;100318.66;;;2.80;68.62
48015;BME280;33780;51.034;7.120;2023-03-12T02:23:25;100317.81;;;2.80;68.53
48015;BME280;33780;51.034;7.120;2023-03-12T02:25:53;100318.66;;;2.80;68.81
48015;BME280;33780;51.034;7.120;2023-03-12T02:28:21;100312.53;;;2.80;69.14
48015;BME280;33780;51.034;7.120;2023-03-12T02:30:50;100303.75;;;2.79;68.88
48015;BME280;33780;51.034;7.120;2023-03-12T02:33:18;100304.69;;;2.78;69.49
48015;BME280;33780;51.034;7.120;2023-03-12T02:35:45;100315.25;;;2.78;69.15
48015;BME280;33780;51.034;7.120;2023-03-12T02:38:35;100311.00;;;2.76;68.85
48015;BME280;33780;51.034;7.120;2023-03-12T02:43:47;100311.00;;;2.76;69.00
48015;BME280;33780;51.034;7.120;2023-03-12T02:46:14;100306.59;;;2.76;69.39
48015;BME280;33780;51.034;7.120;2023-03-12T02:48:39;100310.16;;;2.75;69.36
48015;BME280;33780;51.034;7.120;2023-03-12T02:53:33;100306.78;;;2.73;69.67
48015;BME280;33780;51.034;7.120;2023-03-12T02:55:58;100304.03;;;2.75;69.37
48015;BME280;33780;51.034;7.120;2023-03-12T02:58:23;100294.41;;;2.73;69.58
48015;BME280;33780;51.034;7.120;2023-03-12T03:00:48;100301.41;;;2.75;69.87
48015;BME280;33780;51.034;7.120;2023-03-12T03:03:14;100304.88;;;2.75;69.32
48015;BME280;33780;51.034;7.120;2023-03-12T03:05:39;100305.72;;;2.76;69.49
48015;BME280;33780;51.034;7.120;2023-03-12T03:08:05;100302.16;;;2.77;69.10
48015;BME280;33780;51.034;7.120;2023-03-12T03:10:30;100294.13;;;2.78;69.07
48015;BME280;33780;51.034;7.120;2023-03-12T03:12:56;100289.59;;;2.80;69.12
48015;BME280;33780;51.034;7.120;2023-03-12T03:15:22;100301.75;;;2.83;69.44
48015;BME280;33780;51.034;7.120;2023-03-12T03:17:47;100290.34;;;2.82;69.47
48015;BME280;33780;51.034;7.120;2023-03-12T03:20:12;100288.56;;;2.83;69.54
48015;BME280;33780;51.034;7.120;2023-03-12T03:22:38;100286.84;;;2.82;69.66
48015;BME280;33780;51.034;7.120;2023-03-12T03:25:04;100283.38;;;2.81;69.35
48015;BME280;33780;51.034;7.120;2023-03-12T03:27:30;100268.34;;;2.82;69.55
48015;BME280;33780;51.034;7.120;2023-03-12T03:29:56;100266.56;;;2.82;69.04
48015;BME280;33780;51.034;7.120;2023-03-12T03:32:21;100271.84;;;2.82;69.19
48015;BME280;33780;51.034;7.120;2023-03-12T03:34:46;100267.50;;;2.81;69.79
48015;BME280;33780;51.034;7.120;2023-03-12T03:37:11;100271.09;;;2.80;69.08
48015;BME280;33780;51.034;7.120;2023-03-12T03:39:37;100268.47;;;2.80;69.30
48015;BME280;33780;51.034;7.120;2023-03-12T03:42:02;100279.03;;;2.80;69.09
48015;BME280;33780;51.034;7.120;2023-03-12T03:44:28;100278.19;;;2.80;69.18
48015;BME280;33780;51.034;7.120;2023-03-12T03:46:54;100267.50;;;2.81;69.89
48015;BME280;33780;51.034;7.120;2023-03-12T03:49:19;100273.66;;;2.82;69.28
48015;BME280;33780;51.034;7.120;2023-03-12T03:51:45;100270.25;;;2.80;69.50
48015;BME280;33780;51.034;7.120;2023-03-12T03:54:10;100270.16;;;2.81;69.30
48015;BME280;33780;51.034;7.120;2023-03-12T03:56:36;100264.78;;;2.83;69.59
48015;BME280;33780;51.034;7.120;2023-03-12T03:59:01;100264.78;;;2.83;69.08
48015;BME280;33780;51.034;7.120;2023-03-12T04:01:28;100263.81;;;2.84;69.44
48015;BME280;33780;51.034;7.120;2023-03-12T04:03:54;100266.47;;;2.84;69.00
48015;BME280;33780;51.034;7.120;2023-03-12T04:06:19;100265.63;;;2.83;69.49
48015;BME280;33780;51.034;7.120;2023-03-12T04:08:44;100270.81;;;2.85;69.58
48015;BME280;33780;51.034;7.120;2023-03-12T04:11:19;100265.53;;;2.85;69.61
48015;BME280;33780;51.034;7.120;2023-03-12T04:13:45;100265.44;;;2.86;69.40
48015;BME280;33780;51.034;7.120;2023-03-12T04:16:12;100262.78;;;2.86;69.04
48015;BME280;33780;51.034;7.120;2023-03-12T04:18:38;100263.56;;;2.88;69.59
48015;BME280;33780;51.034;7.120;2023-03-12T04:21:05;100260.06;;;2.88;69.50
48015;BME280;33780;51.034;7.120;2023-03-12T04:23:31;100264.41;;;2.89;68.93
48015;BME280;33780;51.034;7.120;2023-03-12T04:25:56;100259.97;;;2.89;69.15
48015;BME280;33780;51.034;7.120;2023-03-12T04:28:22;100254.69;;;2.89;69.74
48015;BME280;33780;51.034;7.120;2023-03-12T04:30:57;100255.53;;;2.90;69.66
48015;BME280;33780;51.034;7.120;2023-03-12T04:33:27;100255.66;;;2.88;69.25
48015;BME280;33780;51.034;7.120;2023-03-12T04:35:53;100252.91;;;2.90;69.28
48015;BME280;33780;51.034;7.120;2023-03-12T04:38:19;100244.03;;;2.91;69.62
48015;BME280;33780;51.034;7.120;2023-03-12T04:40:45;100239.69;;;2.90;68.96
48015;BME280;33780;51.034;7.120;2023-03-12T04:43:10;100237.03;;;2.90;69.36
48015;BME280;33780;51.034;7.120;2023-03-12T04:45:36;100231.75;;;2.90;69.48
48015;BME280;33780;51.034;7.120;2023-03-12T04:48:03;100235.25;;;2.90;69.46
48015;BME280;33780;51.034;7.120;2023-03-12T04:50:29;100234.22;;;2.93;69.22
48015;BME280;33780;51.034;7.120;2023-03-12T04:52:54;100237.69;;;2.93;68.93
48015;BME280;33780;51.034;7.120;2023-03-12T04:55:19;100238.44;;;2.95;69.38
48015;BME280;33780;51.034;7.120;2023-03-12T04:57:44;100241.00;;;2.97;68.75
48015;BME280;33780;51.034;7.120;2023-03-12T05:00:10;100237.41;;;2.98;68.71
48015;BME280;33780;51.034;7.120;2023-03-12T05:02:40;100239.09;;;2.99;68.47
48015;BME280;33780;51.034;7.120;2023-03-12T05:05:06;100231.06;;;3.00;68.67
48015;BME280;33780;51.034;7.120;2023-03-12T05:07:33;100226.63;;;3.01;68.24
48015;BME280;33780;51.034;7.120;2023-03-12T05:09:59;100237.97;;;3.03;68.16
48015;BME280;33780;51.034;7.120;2023-03-12T05:12:24;100243.09;;;3.06;67.86
48015;BME280;33780;51.034;7.120;2023-03-12T05:14:49;100237.69;;;3.08;67.89
48015;BME280;33780;51.034;7.120;2023-03-12T05:17:14;100234.94;;;3.09;67.95
48015;BME280;33780;51.034;7.120;2023-03-12T05:19:40;100225.03;;;3.13;67.43
48015;BME280;33780;51.034;7.120;2023-03-12T05:22:05;100226.63;;;3.15;67.32
48015;BME280;33780;51.034;7.120;2023-03-12T05:24:30;100222.09;;;3.17;66.87
48015;BME280;33780;51.034;7.120;2023-03-12T05:26:55;100215.75;;;3.20;66.70
48015;BME280;33780;51.034;7.120;2023-03-12T05:29:21;100214.69;;;3.22;66.52
48015;BME280;33780;51.034;7.120;2023-03-12T05:31:46;100213.69;;;3.25;66.85
48015;BME280;33780;51.034;7.120;2023-03-12T05:34:12;100191.59;;;3.26;66.49
48015;BME280;33780;51.034;7.120;2023-03-12T05:36:38;100203.75;;;3.28;66.84
48015;BME280;33780;51.034;7.120;2023-03-12T05:39:03;100193.28;;;3.27;66.57
48015;BME280;33780;51.034;7.120;2023-03-12T05:41:29;100189.59;;;3.29;66.90
48015;BME280;33780;51.034;7.120;2023-03-12T05:43:55;100179.84;;;3.30;66.33
48015;BME280;33780;51.034;7.120;2023-03-12T05:46:21;100178.91;;;3.31;66.53
48015;BME280;33780;51.034;7.120;2023-03-12T05:48:47;100173.53;;;3.32;67.05
48015;BME280;33780;51.034;7.120;2023-03-12T05:51:12;100176.16;;;3.32;67.03
48015;BME280;33780;51.034;7.120;2023-03-12T05:53:37;100172.56;;;3.33;67.05
48015;BME280;33780;51.034;7.120;2023-03-12T05:56:05;100168.22;;;3.32;67.00
48015;BME280;33780;51.034;7.120;2023-03-12T05:58:31;100164.84;;;3.30;67.64
48015;BME280;33780;51.034;7.120;2023-03-12T06:00:57;100158.72;;;3.30;67.69
48015;BME280;33780;51.034;7.120;2023-03-12T06:03:22;100156.91;;;3.30;67.45
48015;BME280;33780;51.034;7.120;2023-03-12T06:05:48;100163.25;;;3.28;67.55
48015;BME280;33780;51.034;7.120;2023-03-12T06:08:13;100159.66;;;3.29;68.25
48015;BME280;33780;51.034;7.120;2023-03-12T06:10:38;100148.22;;;3.28;68.11
48015;BME280;33780;51.034;7.120;2023-03-12T06:13:04;100153.53;;;3.28;68.35
48015;BME280;33780;51.034;7.120;2023-03-12T06:15:29;100142.94;;;3.28;68.26
48015;BME280;33780;51.034;7.120;2023-03-12T06:17:55;100142.09;;;3.28;68.66
48015;BME280;33780;51.034;7.120;2023-03-12T06:20:20;100143.78;;;3.29;68.88
48015;BME280;33780;51.034;7.120;2023-03-12T06:22:45;100149.94;;;3.29;69.03
48015;BME280;33780;51.034;7.120;2023-03-12T06:25:10;100149.94;;;3.29;69.31
48015;BME280;33780;51.034;7.120;2023-03-12T06:27:36;100139.34;;;3.29;69.87
48015;BME280;33780;51.034;7.120;2023-03-12T06:30:02;100142.00;;;3.29;69.97
48015;BME280;33780;51.034;7.120;2023-03-12T06:32:27;100141.03;;;3.30;69.63
48015;BME280;33780;51.034;7.120;2023-03-12T06:34:52;100139.25;;;3.31;70.03
48015;BME280;33780;51.034;7.120;2023-03-12T06:37:18;100138.19;;;3.33;70.41
48015;BME280;33780;51.034;7.120;2023-03-12T06:39:43;100130.16;;;3.35;69.99
48015;BME280;33780;51.034;7.120;2023-03-12T06:42:08;100134.50;;;3.36;70.31
48015;BME280;33780;51.034;7.120;2023-03-12T06:44:34;100143.28;;;3.37;70.08
48015;BME280;33780;51.034;7.120;2023-03-12T06:46:59;100140.53;;;3.38;70.77
48015;BME280;33780;51.034;7.120;2023-03-12T06:49:24;100140.44;;;3.40;70.95
48015;BME280;33780;51.034;7.120;2023-03-12T06:51:51;100139.47;;;3.41;70.73
48015;BME280;33780;51.034;7.120;2023-03-12T06:54:16;100143.75;;;3.43;70.96
48015;BME280;33780;51.034;7.120;2023-03-12T06:56:42;100129.47;;;3.46;70.92
48015;BME280;33780;51.034;7.120;2023-03-12T06:59:07;100123.97;;;3.49;70.70
48015;BME280;33780;51.034;7.120;2023-03-12T07:01:33;100134.34;;;3.52;70.90
48015;BME280;33780;51.034;7.120;2023-03-12T07:03:58;100131.59;;;3.53;71.00
48015;BME280;33780;51.034;7.120;2023-03-12T07:06:24;100151.59;;;3.57;71.01
48015;BME280;33780;51.034;7.120;2023-03-12T07:08:50;100145.34;;;3.58;71.27
48015;BME280;33780;51.034;7.120;2023-03-12T07:11:16;100152.38;;;3.59;71.21
48015;BME280;33780;51.034;7.120;2023-03-12T07:13:42;100150.47;;;3.61;71.09
48015;BME280;33780;51.034;7.120;2023-03-12T07:16:08;100156.50;;;3.63;70.98
48015;BME280;33780;51.034;7.120;2023-03-12T07:18:34;100159.03;;;3.65;71.09
48015;BME280;33780;51.034;7.120;2023-03-12T07:20:59;100157.25;;;3.66;71.17
48015;BME280;33780;51.034;7.120;2023-03-12T07:23:25;100140.41;;;3.67;71.28
48015;BME280;33780;51.034;7.120;2023-03-12T07:25:51;100150.06;;;3.68;71.27
48015;BME280;33780;51.034;7.120;2023-03-12T07:28:17;100147.41;;;3.68;71.37
48015;BME280;33780;51.034;7.120;2023-03-12T07:30:46;100149.09;;;3.69;71.06
48015;BME280;33780;51.034;7.120;2023-03-12T07:33:19;100144.53;;;3.71;71.34
48015;BME280;33780;51.034;7.120;2023-03-12T07:35:46;100140.00;;;3.73;71.28
48015;BME280;33780;51.034;7.120;2023-03-12T07:38:12;100134.59;;;3.74;71.33
48015;BME280;33780;51.034;7.120;2023-03-12T07:40:38;100142.38;;;3.77;71.11
48015;BME280;33780;51.034;7.120;2023-03-12T07:43:04;100151.03;;;3.79;71.71
48015;BME280;33780;51.034;7.120;2023-03-12T07:45:35;100157.91;;;3.82;71.56
48015;BME280;33780;51.034;7.120;2023-03-12T07:48:00;100149.03;;;3.83;71.53
48015;BME280;33780;51.034;7.120;2023-03-12T07:50:26;100135.69;;;3.84;71.61
48015;BME280;33780;51.034;7.120;2023-03-12T07:52:51;100144.38;;;3.86;71.43
48015;BME280;33780;51.034;7.120;2023-03-12T07:55:16;100131.03;;;3.88;71.14
48015;BME280;33780;51.034;7.120;2023-03-12T07:57:42;100138.75;;;3.91;70.91
48015;BME280;33780;51.034;7.120;2023-03-12T08:00:08;100136.00;;;3.92;71.39
48015;BME280;33780;51.034;7.120;2023-03-12T08:02:35;100138.53;;;3.94;71.70
48015;BME280;33780;51.034;7.120;2023-03-12T08:05:00;100134.03;;;3.96;71.60
48015;BME280;33780;51.034;7.120;2023-03-12T08:07:26;100132.13;;;3.98;71.52
48015;BME280;33780;51.034;7.120;2023-03-12T08:09:59;100131.16;;;3.99;71.45
48015;BME280;33780;51.034;7.120;2023-03-12T08:12:24;100130.94;;;4.02;71.85
48015;BME280;33780;51.034;7.120;2023-03-12T08:14:49;100134.34;;;4.04;71.60
48015;BME280;33780;51.034;7.120;2023-03-12T08:17:15;100141.22;;;4.07;71.25
48015;BME280;33780;51.034;7.120;2023-03-12T08:19:40;100131.47;;;4.07;72.01
48015;BME280;33780;51.034;7.120;2023-03-12T08:22:06;100136.56;;;4.10;71.84
48015;BME280;33780;51.034;7.120;2023-03-12T08:24:32;100141.75;;;4.12;71.82
48015;BME280;33780;51.034;7.120;2023-03-12T08:26:57;100135.50;;;4.13;71.85
48015;BME280;33780;51.034;7.120;2023-03-12T08:29:22;100146.75;;;4.16;71.71
48015;BME280;33780;51.034;7.120;2023-03-12T08:31:48;100135.09;;;4.19;72.42
48015;BME280;33780;51.034;7.120;2023-03-12T08:34:13;100137.63;;;4.20;71.96
48015;BME280;33780;51.034;7.120;2023-03-12T08:36:38;100135.72;;;4.22;72.19
48015;BME280;33780;51.034;7.120;2023-03-12T08:39:04;100139.09;;;4.24;72.26
48015;BME280;33780;51.034;7.120;2023-03-12T08:41:29;100137.19;;;4.27;72.37
48015;BME280;33780;51.034;7.120;2023-03-12T08:43:54;100129.03;;;4.30;72.30
48015;BME280;33780;51.034;7.120;2023-03-12T08:46:20;100138.69;;;4.31;72.98
48015;BME280;33780;51.034;7.120;2023-03-12T08:48:45;100138.38;;;4.35;72.87
48015;BME280;33780;51.034;7.120;2023-03-12T08:51:10;100129.38;;;4.38;73.00
48015;BME280;33780;51.034;7.120;2023-03-12T08:53:36;100129.16;;;4.41;72.98
48015;BME280;33780;51.034;7.120;2023-03-12T08:56:02;100128.94;;;4.44;73.10
48015;BME280;33780;51.034;7.120;2023-03-12T08:58:28;100127.75;;;4.48;73.73
48015;BME280;33780;51.034;7.120;2023-03-12T09:00:54;100133.06;;;4.48;73.57
48015;BME280;33780;51.034;7.120;2023-03-12T09:03:20;100129.38;;;4.50;73.81
48015;BME280;33780;51.034;7.120;2023-03-12T09:05:46;100120.47;;;4.51;74.67
48015;BME280;33780;51.034;7.120;2023-03-12T09:08:13;100116.84;;;4.52;74.11
48015;BME280;33780;51.034;7.120;2023-03-12T09:10:38;100110.50;;;4.55;73.89
48015;BME280;33780;51.034;7.120;2023-03-12T09:13:05;100115.69;;;4.57;74.08
48015;BME280;33780;51.034;7.120;2023-03-12T09:15:30;100117.16;;;4.61;74.76
48015;BME280;33780;51.034;7.120;2023-03-12T09:17:56;100114.28;;;4.64;74.85
48015;BME280;33780;51.034;7.120;2023-03-12T09:20:22;100120.41;;;4.64;74.85
48015;BME280;33780;51.034;7.120;2023-03-12T09:22:48;100122.88;;;4.67;74.89
48015;BME280;33780;51.034;7.120;2023-03-12T09:25:13;100121.91;;;4.68;75.22
48015;BME280;33780;51.034;7.120;2023-03-12T09:27:41;100127.09;;;4.70;75.12
48015;BME280;33780;51.034;7.120;2023-03-12T09:30:08;100130.59;;;4.70;75.96
48015;BME280;33780;51.034;7.120;2023-03-12T09:32:36;100131.34;;;4.72;75.49
48015;BME280;33780;51.034;7.120;2023-03-12T09:35:01;100135.69;;;4.73;75.75
48015;BME280;33780;51.034;7.120;2023-03-12T09:37:26;100136.41;;;4.75;75.93
48015;BME280;33780;51.034;7.120;2023-03-12T09:39:52;100132.81;;;4.76;76.07
48015;BME280;33780;51.034;7.120;2023-03-12T09:42:22;100126.56;;;4.77;75.86
48015;BME280;33780;51.034;7.120;2023-03-12T09:44:50;100130.78;;;4.80;75.99
48015;BME280;33780;51.034;7.120;2023-03-12T09:47:32;100138.50;;;4.83;76.28
48015;BME280;33780;51.034;7.120;2023-03-12T09:50:05;100130.44;;;4.84;76.40
48015;BME280;33780;51.034;7.120;2023-03-12T09:52:49;100123.38;;;4.85;75.94
48015;BME280;33780;51.034;7.120;2023-03-12T09:55:21;100129.41;;;4.87;76.51
48015;BME280;33780;51.034;7.120;2023-03-12T09:57:48;100130.13;;;4.89;76.65
48015;BME280;33780;51.034;7.120;2023-03-12T10:00:22;100123.88;;;4.90;77.13
48015;BME280;33780;51.034;7.120;2023-03-12T10:05:45;100128.97;;;4.93;77.00
48015;BME280;33780;51.034;7.120;2023-03-12T10:16:34;100127.66;;;4.99;78.12
48015;BME280;33780;51.034;7.120;2023-03-12T10:19:15;100125.75;;;5.01;77.82
48015;BME280;33780;51.034;7.120;2023-03-12T10:22:00;100127.22;;;5.05;77.78
48015;BME280;33780;51.034;7.120;2023-03-12T10:27:28;100126.66;;;5.12;78.18
48015;BME280;33780;51.034;7.120;2023-03-12T10:29:54;100120.28;;;5.15;78.61
48015;BME280;33780;51.034;7.120;2023-03-12T10:32:37;100122.72;;;5.18;78.26
48015;BME280;33780;51.034;7.120;2023-03-12T10:35:20;100116.38;;;5.21;78.89
48015;BME280;33780;51.034;7.120;2023-03-12T10:37:55;100125.91;;;5.23;79.08
48015;BME280;33780;51.034;7.120;2023-03-12T10:40:26;100132.66;;;5.27;79.47
48015;BME280;33780;51.034;7.120;2023-03-12T10:42:55;100129.03;;;5.28;79.22
48015;BME280;33780;51.034;7.120;2023-03-12T10:45:35;100134.97;;;5.32;79.41
48015;BME280;33780;51.034;7.120;2023-03-12T10:48:05;100127.84;;;5.32;79.45
48015;BME280;33780;51.034;7.120;2023-03-12T10:50:37;100125.94;;;5.34;79.11
48015;BME280;33780;51.034;7.120;2023-03-12T10:53:33;100127.38;;;5.38;79.78
48015;BME280;33780;51.034;7.120;2023-03-12T10:56:17;100137.06;;;5.39;79.59
48015;BME280;33780;51.034;7.120;2023-03-12T10:58:50;100129.72;;;5.43;79.72
48015;BME280;33780;51.034;7.120;2023-03-12T11:01:20;100130.47;;;5.45;79.65
48015;BME280;33780;51.034;7.120;2023-03-12T11:03:46;100134.69;;;5.47;80.09
48015;BME280;33780;51.034;7.120;2023-03-12T11:06:27;100147.72;;;5.51;80.38
48015;BME280;33780;51.034;7.120;2023-03-12T11:11:35;100137.59;;;5.56;80.58
48015;BME280;33780;51.034;7.120;2023-03-12T11:14:06;100147.19;;;5.58;80.57
48015;BME280;33780;51.034;7.120;2023-03-12T11:16:31;100142.59;;;5.60;80.30
48015;BME280;33780;51.034;7.120;2023-03-12T11:19:06;100139.81;;;5.62;80.31
48015;BME280;33780;51.034;7.120;2023-03-12T11:21:34;100131.75;;;5.63;80.38
48015;BME280;33780;51.034;7.120;2023-03-12T11:24:19;100135.84;;;5.67;80.90
48015;BME280;33780;51.034;7.120;2023-03-12T11:26:51;100136.59;;;5.69;80.74
48015;BME280;33780;51.034;7.120;2023-03-12T11:29:32;100139.00;;;5.72;80.70
48015;BME280;33780;51.034;7.120;2023-03-12T11:32:37;100137.94;;;5.75;80.49
48015;BME280;33780;51.034;7.120;2023-03-12T11:35:10;100136.88;;;5.78;81.07
48015;BME280;33780;51.034;7.120;2023-03-12T11:37:47;100126.84;;;5.81;81.03
48015;BME280;33780;51.034;7.120;2023-03-12T11:46:04;100127.78;;;5.93;81.59
48015;BME280;33780;51.034;7.120;2023-03-12T11:51:44;100130.69;;;6.01;81.83
48015;BME280;33780;51.034;7.120;2023-03-12T11:56:52;100125.97;;;6.04;81.56
48015;BME280;33780;51.034;7.120;2023-03-12T12:02:41;100128.41;;;6.07;82.35
48015;BME280;33780;51.034;7.120;2023-03-12T12:05:43;100121.06;;;6.11;81.67
48015;BME280;33780;51.034;7.120;2023-03-12T12:21:04;100112.50;;;6.30;82.87
48015;BME280;33780;51.034;7.120;2023-03-12T12:23:55;100113.97;;;6.34;82.91
48015;BME280;33780;51.034;7.120;2023-03-12T12:26:43;100115.66;;;6.35;83.36
48015;BME280;33780;51.034;7.120;2023-03-12T12:29:17;100099.34;;;6.40;82.74
48015;BME280;33780;51.034;7.120;2023-03-12T12:31:50;100106.09;;;6.44;83.41
48015;BME280;33780;51.034;7.120;2023-03-12T12:35:00;100095.84;;;6.50;82.96
48015;BME280;33780;51.034;7.120;2023-03-12T12:40:41;100097.50;;;6.74;82.22
48015;BME280;33780;51.034;7.120;2023-03-12T12:46:01;100100.84;;;6.98;83.73
48015;BME280;33780;51.034;7.120;2023-03-12T12:48:35;100103.50;;;7.09;83.59
48015;BME280;33780;51.034;7.120;2023-03-12T12:51:06;100100.34;;;7.15;84.40
48015;BME280;33780;51.034;7.120;2023-03-12T12:54:01;100087.38;;;7.22;84.15
48015;BME280;33780;51.034;7.120;2023-03-12T12:56:33;100083.63;;;7.24;84.15
48015;BME280;33780;51.034;7.120;2023-03-12T12:59:26;100075.97;;;7.31;84.63
48015;BME280;33780;51.034;7.120;2023-03-12T13:01:56;100078.25;;;7.36;84.71
48015;BME280;33780;51.034;7.120;2023-03-12T13:04:34;100077.88;;;7.40;84.85
48015;BME280;33780;51.034;7.120;2023-03-12T13:07:27;100072.16;;;7.45;85.12
48015;BME280;33780;51.034;7.120;2023-03-12T13:09:54;100070.69;;;7.52;85.34
48015;BME280;33780;51.034;7.120;2023-03-12T13:12:32;100065.69;;;7.58;85.19
48015;BME280;33780;51.034;7.120;2023-03-12T13:15:00;100060.81;;;7.64;85.49
48015;BME280;33780;51.034;7.120;2023-03-12T13:17:32;100059.22;;;7.72;85.24
48015;BME280;33780;51.034;7.120;2023-03-12T13:20:16;100044.84;;;7.84;85.51
48015;BME280;33780;51.034;7.120;2023-03-12T13:23:04;100047.31;;;7.97;85.57
48015;BME280;33780;51.034;7.120;2023-03-12T13:33:44;100032.44;;;8.25;86.56
48015;BME280;33780;51.034;7.120;2023-03-12T13:49:51;100026.44;;;8.73;88.25
48015;BME280;33780;51.034;7.120;2023-03-12T13:52:27;100017.78;;;8.81;88.34
48015;BME280;33780;51.034;7.120;2023-03-12T13:59:57;100009.53;;;9.03;88.09
48015;BME280;33780;51.034;7.120;2023-03-12T14:02:47;100019.47;;;9.11;88.11
48015;BME280;33780;51.034;7.120;2023-03-12T14:05:21;100017.50;;;9.13;88.36
48015;BME280;33780;51.034;7.120;2023-03-12T14:11:07;99997.88;;;9.23;87.80
48015;BME280;33780;51.034;7.120;2023-03-12T14:16:47;99998.81;;;9.32;87.94
48015;BME280;33780;51.034;7.120;2023-03-12T14:19:17;100010.94;;;9.36;87.48
48015;BME280;33780;51.034;7.120;2023-03-12T14:21:45;100009.81;;;9.38;86.86
48015;BME280;33780;51.034;7.120;2023-03-12T14:24:32;100000.53;;;9.43;86.69
48015;BME280;33780;51.034;7.120;2023-03-12T14:27:00;99992.91;;;9.48;86.36
48015;BME280;33780;51.034;7.120;2023-03-12T14:29:41;100004.03;;;9.53;86.24
48015;BME280;33780;51.034;7.120;2023-03-12T14:32:17;99999.09;;;9.58;85.96
48015;BME280;33780;51.034;7.120;2023-03-12T14:34:49;99996.13;;;9.61;85.94
48015;BME280;33780;51.034;7.120;2023-03-12T14:39:45;100008.34;;;9.63;85.29
48015;BME280;33780;51.034;7.120;2023-03-12T14:42:22;99997.22;;;9.68;84.73